Alpine, Colorado
Current Conditions -  °F | °C
As of 4:50 AM on Sunday 21 Dec 2014 (Local Time) from KRCV Reporting Station
Clear Clear  
Wind Chill:   Ceiling: Unl
Heat Index: 14°   Visibility: 10mi
Dew Point: 10°   Wind: 9mph
Humidity: 84%   Direction: 260°W
Pressure: 29.96"   Gusts: NA
Location:  37.6617°N, 106.617°W
Report Text: KRCV 211150Z AUTO 26008KT 10SM CLR M10/M12 A2996 RMK AO2 T10981120 11048 21107
Loading
Personal Weather Stations






























Interactive Weather Map New forecast layout! Learn more

10-Day Weather Forecast

Advertisements
Track Severe Weather on mobile